createdAt,value
2018-06-21T00:00:38.753Z,58.17
2018-06-21T00:02:41.520Z,58.13
2018-06-21T00:04:44.176Z,57.77
2018-06-21T00:06:46.846Z,54.20
2018-06-21T00:08:49.754Z,51.30
2018-06-21T00:10:52.519Z,52.67
2018-06-21T00:12:55.172Z,54.70
2018-06-21T00:14:57.874Z,50.80
2018-06-21T00:17:00.429Z,50.23
2018-06-21T00:19:03.405Z,48.97
2018-06-21T00:21:06.080Z,48.90
2018-06-21T00:23:08.791Z,49.77
2018-06-21T00:25:11.301Z,54.60
2018-06-21T00:27:14.044Z,59.25
2018-06-21T00:29:16.960Z,57.70
2018-06-21T00:31:19.629Z,53.07
2018-06-21T00:33:22.242Z,51.80
2018-06-21T00:35:24.720Z,52.13
2018-06-21T00:37:27.238Z,51.57
2018-06-21T00:39:30.180Z,50.37
2018-06-21T00:41:32.796Z,50.00
2018-06-21T00:43:35.429Z,50.77
2018-06-21T00:45:38.207Z,46.17
2018-06-21T00:47:40.823Z,48.40
2018-06-21T00:49:43.424Z,48.20
2018-06-21T00:51:46.451Z,44.23
2018-06-21T00:53:48.960Z,46.40
2018-06-21T00:55:51.290Z,49.00
2018-06-21T00:57:54.262Z,49.90
2018-06-21T00:59:56.838Z,47.07
2018-06-21T01:01:59.397Z,53.40
2018-06-21T01:04:02.103Z,87.73
2018-06-21T01:06:04.620Z,102.70
2018-06-21T01:08:07.497Z,73.33
2018-06-21T01:10:10.338Z,68.16
2018-06-21T01:12:13.008Z,61.83
2018-06-21T01:14:16.072Z,57.67
2018-06-21T01:16:18.859Z,51.20
2018-06-21T01:18:21.554Z,44.90
2018-06-21T01:20:24.155Z,42.33
2018-06-21T01:22:27.086Z,39.83
2018-06-21T01:24:29.563Z,39.72
2018-06-21T01:26:32.755Z,38.63
2018-06-21T01:28:35.848Z,36.47
2018-06-21T01:30:38.631Z,36.23
2018-06-21T01:32:41.479Z,39.07
2018-06-21T01:34:44.491Z,36.50
2018-06-21T01:36:47.583Z,29.67
2018-06-21T01:38:50.665Z,30.37
2018-06-21T01:40:54.055Z,31.60
2018-06-21T01:42:57.028Z,32.67
2018-06-21T01:45:00.174Z,30.67
2018-06-21T01:47:03.596Z,29.17
2018-06-21T01:49:06.981Z,33.23
2018-06-21T01:51:12.981Z,29.77
2018-06-21T01:53:15.961Z,27.87
2018-06-21T01:55:19.253Z,29.43
2018-06-21T01:57:22.774Z,31.07
2018-06-21T01:59:26.129Z,28.53
2018-06-21T02:01:29.937Z,30.17
2018-06-21T02:03:33.246Z,28.97
2018-06-21T02:05:36.649Z,28.07
2018-06-21T02:07:40.056Z,28.97
2018-06-21T02:09:43.485Z,30.83
2018-06-21T02:11:46.583Z,26.83
2018-06-21T02:13:50.254Z,27.20
2018-06-21T02:15:53.863Z,27.03
2018-06-21T02:17:57.082Z,26.47
2018-06-21T02:20:00.516Z,26.57
2018-06-21T02:22:04.180Z,27.80
2018-06-21T02:24:07.132Z,24.87
2018-06-21T02:26:10.359Z,24.77
2018-06-21T02:28:14.045Z,25.97
2018-06-21T02:30:17.955Z,23.67
2018-06-21T02:32:21.741Z,25.30
2018-06-21T02:34:25.399Z,24.53
2018-06-21T02:36:29.569Z,25.73
2018-06-21T02:38:33.429Z,25.70
2018-06-21T02:40:37.012Z,26.63
2018-06-21T02:42:40.014Z,27.67
2018-06-21T02:44:43.336Z,23.87
2018-06-21T02:46:46.624Z,25.47
2018-06-21T02:48:50.449Z,23.67
2018-06-21T02:50:53.889Z,25.40
2018-06-21T02:52:57.233Z,27.07
2018-06-21T02:55:00.609Z,27.70
2018-06-21T02:57:04.434Z,27.00
2018-06-21T02:59:07.656Z,24.17
2018-06-21T03:01:11.031Z,23.67
2018-06-21T03:03:14.180Z,25.57
2018-06-21T03:05:18.222Z,25.50
2018-06-21T03:07:21.496Z,24.83
2018-06-21T03:09:24.691Z,24.43
2018-06-21T03:11:27.932Z,25.23
2018-06-21T03:13:30.937Z,24.27
2018-06-21T03:15:34.344Z,23.53
2018-06-21T03:17:37.937Z,25.53
2018-06-21T03:19:41.449Z,22.43
2018-06-21T03:21:44.709Z,24.27
2018-06-21T03:23:48.110Z,24.73
2018-06-21T03:25:51.906Z,28.37
2018-06-21T03:27:55.328Z,23.40
2018-06-21T03:29:58.494Z,25.43
2018-06-21T03:32:03.057Z,24.30
2018-06-21T03:34:06.192Z,23.27
2018-06-21T03:36:09.491Z,24.80
2018-06-21T03:38:12.592Z,23.80
2018-06-21T03:40:15.914Z,24.03
2018-06-21T03:42:19.159Z,24.63
2018-06-21T03:44:22.274Z,24.97
2018-06-21T03:46:25.326Z,24.07
2018-06-21T03:48:28.438Z,23.87
2018-06-21T03:50:32.215Z,24.30
2018-06-21T03:52:35.403Z,23.17
2018-06-21T03:54:39.534Z,25.23
2018-06-21T03:56:42.908Z,26.47
2018-06-21T03:58:45.995Z,25.53
2018-06-21T04:00:49.387Z,24.27
2018-06-21T04:02:52.791Z,25.70
2018-06-21T04:04:55.873Z,24.73
2018-06-21T04:06:59.363Z,24.97
2018-06-21T04:09:02.567Z,24.50
2018-06-21T04:11:06.555Z,24.67
2018-06-21T04:13:09.850Z,24.00
2018-06-21T04:15:13.246Z,24.40
2018-06-21T04:17:16.597Z,24.43
2018-06-21T04:19:20.246Z,23.40
2018-06-21T04:21:23.225Z,24.40
2018-06-21T04:23:26.609Z,22.97
2018-06-21T04:25:30.232Z,26.53
2018-06-21T04:27:33.409Z,23.57
2018-06-21T04:29:37.194Z,22.77
2018-06-21T04:31:40.701Z,23.70
2018-06-21T04:33:43.819Z,21.30
2018-06-21T04:35:47.182Z,22.83
2018-06-21T04:37:50.615Z,23.50
2018-06-21T04:39:53.757Z,23.50
2018-06-21T04:41:57.179Z,21.97
2018-06-21T04:44:00.538Z,22.40
2018-06-21T04:46:04.148Z,22.40
2018-06-21T04:48:07.331Z,23.13
2018-06-21T04:50:10.397Z,22.77
2018-06-21T04:52:13.490Z,22.20
2018-06-21T04:54:17.300Z,22.10
2018-06-21T04:56:21.105Z,22.77
2018-06-21T04:58:24.383Z,23.57
2018-06-21T05:00:27.943Z,22.90
2018-06-21T05:02:31.394Z,23.73
2018-06-21T05:04:34.883Z,22.13
2018-06-21T05:06:38.294Z,21.73
2018-06-21T05:08:41.885Z,21.10
2018-06-21T05:10:44.986Z,21.30
2018-06-21T05:12:48.251Z,21.70
2018-06-21T05:14:52.229Z,23.17
2018-06-21T05:16:55.683Z,21.53
2018-06-21T05:18:58.944Z,21.37
2018-06-21T05:21:02.886Z,22.63
2018-06-21T05:23:06.237Z,19.63
2018-06-21T05:25:09.476Z,20.50
2018-06-21T05:27:12.814Z,21.30
2018-06-21T05:29:16.111Z,20.83
2018-06-21T05:31:19.337Z,19.83
2018-06-21T05:33:22.823Z,19.30
2018-06-21T05:35:25.984Z,20.60
2018-06-21T05:37:28.934Z,20.93
2018-06-21T05:39:31.834Z,21.50
2018-06-21T05:41:34.917Z,20.57
2018-06-21T05:43:37.903Z,19.47
2018-06-21T05:45:40.990Z,20.13
2018-06-21T05:47:44.072Z,20.10
2018-06-21T05:49:47.772Z,20.53
2018-06-21T05:51:51.071Z,20.97
2018-06-21T05:53:54.192Z,19.77
2018-06-21T05:55:57.153Z,18.77
2018-06-21T05:58:00.325Z,20.00
2018-06-21T06:00:03.515Z,22.53
2018-06-21T06:02:06.609Z,17.27
2018-06-21T06:04:09.686Z,19.50
2018-06-21T06:06:12.675Z,18.47
2018-06-21T06:08:15.764Z,18.23
2018-06-21T06:10:18.839Z,17.97
2018-06-21T06:12:21.822Z,19.03
2018-06-21T06:14:24.815Z,17.53
2018-06-21T06:16:27.959Z,17.67
2018-06-21T06:18:31.184Z,19.00
2018-06-21T06:20:34.165Z,18.40
2018-06-21T06:22:37.272Z,16.60
2018-06-21T06:24:40.347Z,19.23
2018-06-21T06:26:43.222Z,17.27
2018-06-21T06:28:46.162Z,17.03
2018-06-21T06:30:49.400Z,18.03
2018-06-21T06:32:52.380Z,16.43
2018-06-21T06:34:55.408Z,17.20
2018-06-21T06:36:58.338Z,15.10
2018-06-21T06:39:01.432Z,16.73
2018-06-21T06:41:04.418Z,16.13
2018-06-21T06:43:07.809Z,16.60
2018-06-21T06:45:10.786Z,17.63
2018-06-21T06:47:13.673Z,16.43
2018-06-21T06:49:16.758Z,17.23
2018-06-21T06:51:19.846Z,16.17
2018-06-21T06:53:23.339Z,17.27
2018-06-21T06:55:26.434Z,16.83
2018-06-21T06:57:29.606Z,15.90
2018-06-21T06:59:32.814Z,16.20
2018-06-21T07:01:35.903Z,15.87
2018-06-21T07:03:39.082Z,16.07
2018-06-21T07:05:42.085Z,15.20
2018-06-21T07:07:45.035Z,15.50
2018-06-21T07:09:48.237Z,15.50
2018-06-21T07:11:51.411Z,16.80
2018-06-21T07:13:54.395Z,15.87
2018-06-21T07:15:57.384Z,16.67
2018-06-21T07:18:00.658Z,15.17
2018-06-21T07:20:04.066Z,15.33
2018-06-21T07:22:07.352Z,15.23
2018-06-21T07:24:10.339Z,15.97
2018-06-21T07:26:13.330Z,15.77
2018-06-21T07:28:16.518Z,15.97
2018-06-21T07:30:19.496Z,14.57
2018-06-21T07:32:22.470Z,15.80
2018-06-21T07:34:25.374Z,15.20
2018-06-21T07:36:28.760Z,15.77
2018-06-21T07:38:31.938Z,15.27
2018-06-21T07:40:35.996Z,13.37
2018-06-21T07:42:39.141Z,14.77
2018-06-21T07:44:42.240Z,15.23
2018-06-21T07:46:45.925Z,13.73
2018-06-21T07:48:49.218Z,15.17
2018-06-21T07:50:52.304Z,13.80
2018-06-21T07:52:55.276Z,14.87
2018-06-21T07:54:58.168Z,14.03
2018-06-21T07:57:01.253Z,13.60
2018-06-21T07:59:04.386Z,13.67
2018-06-21T08:01:07.319Z,13.20
2018-06-21T08:03:10.046Z,13.40
2018-06-21T08:05:12.918Z,13.00
2018-06-21T08:07:16.068Z,14.20
2018-06-21T08:09:20.212Z,13.93
2018-06-21T08:11:24.071Z,14.13
2018-06-21T08:13:27.066Z,14.57
2018-06-21T08:15:30.051Z,13.83
2018-06-21T08:17:32.923Z,15.97
2018-06-21T08:19:35.904Z,15.23
2018-06-21T08:21:38.807Z,13.77
2018-06-21T08:23:41.773Z,14.03
2018-06-21T08:25:44.651Z,13.07
2018-06-21T08:27:47.751Z,15.17
2018-06-21T08:29:50.836Z,15.23
2018-06-21T08:31:54.898Z,14.97
2018-06-21T08:33:57.884Z,13.00
2018-06-21T08:36:00.900Z,12.30
2018-06-21T08:38:03.886Z,15.03
2018-06-21T08:40:06.893Z,12.73
2018-06-21T08:42:09.825Z,13.67
2018-06-21T08:44:12.748Z,15.03
2018-06-21T08:46:15.816Z,14.07
2018-06-21T08:48:19.011Z,15.20
2018-06-21T08:50:22.196Z,13.67
2018-06-21T08:52:25.277Z,12.90
2018-06-21T08:54:28.281Z,12.53
2018-06-21T08:56:31.549Z,12.07
2018-06-21T08:58:34.535Z,13.10
2018-06-21T09:00:37.416Z,14.10
2018-06-21T09:02:40.406Z,13.43
2018-06-21T09:04:43.283Z,12.93
2018-06-21T09:06:46.381Z,15.07
2018-06-21T09:08:49.458Z,13.03
2018-06-21T09:10:52.556Z,13.50
2018-06-21T09:12:55.623Z,13.20
2018-06-21T09:14:58.918Z,27.23
2018-06-21T09:17:01.905Z,47.83
2018-06-21T09:19:04.887Z,24.73
2018-06-21T09:21:07.580Z,25.53
2018-06-21T09:23:10.177Z,21.97
2018-06-21T09:25:12.751Z,20.92
2018-06-21T09:27:15.314Z,21.60
2018-06-21T09:29:18.172Z,19.43
2018-06-21T09:31:20.862Z,18.60
2018-06-21T09:33:23.321Z,19.93
2018-06-21T09:35:26.305Z,18.23
2018-06-21T09:37:29.854Z,19.27
2018-06-21T09:39:32.247Z,18.40
2018-06-21T09:41:35.753Z,17.47
2018-06-21T09:43:50.291Z,18.47
2018-06-21T09:45:41.033Z,17.60
2018-06-21T09:47:44.003Z,17.30
2018-06-21T09:49:46.653Z,17.83
2018-06-21T09:51:50.188Z,16.70
2018-06-21T09:53:52.814Z,16.77
2018-06-21T09:55:55.335Z,17.37
2018-06-21T09:57:57.776Z,16.90
2018-06-21T10:00:00.263Z,17.43
2018-06-21T10:02:02.734Z,17.40
2018-06-21T10:04:05.302Z,17.93
2018-06-21T10:06:08.207Z,17.67
2018-06-21T10:08:10.593Z,17.03
2018-06-21T10:10:13.252Z,16.93
2018-06-21T10:12:15.853Z,17.77
2018-06-21T10:14:18.468Z,17.10
2018-06-21T10:16:20.997Z,17.90
2018-06-21T10:18:24.440Z,15.07
2018-06-21T10:20:26.957Z,17.03
2018-06-21T10:22:29.488Z,16.87
2018-06-21T10:24:33.231Z,15.37
2018-06-21T10:26:35.546Z,15.87
2018-06-21T10:28:38.502Z,15.40
2018-06-21T10:30:41.016Z,15.90
2018-06-21T10:32:43.787Z,14.93
2018-06-21T10:34:46.244Z,15.67
2018-06-21T10:36:48.769Z,15.40
2018-06-21T10:38:51.189Z,13.93
2018-06-21T10:40:53.707Z,13.77
2018-06-21T10:42:56.658Z,15.00
2018-06-21T10:44:59.085Z,14.00
2018-06-21T10:47:01.707Z,12.47
2018-06-21T10:49:04.588Z,13.63
2018-06-21T10:51:07.041Z,12.80
2018-06-21T10:53:09.709Z,13.17
2018-06-21T10:55:12.162Z,11.60
2018-06-21T10:57:14.879Z,12.43
2018-06-21T10:59:17.769Z,13.40
2018-06-21T11:01:20.855Z,12.50
2018-06-21T11:03:23.812Z,12.20
2018-06-21T11:05:26.917Z,12.47
2018-06-21T11:07:30.113Z,11.90
2018-06-21T11:09:33.088Z,11.40
2018-06-21T11:11:36.387Z,11.50
2018-06-21T11:13:40.816Z,28.47
2018-06-21T11:15:43.671Z,35.03
2018-06-21T11:17:46.869Z,27.17
2018-06-21T11:19:49.907Z,26.60
2018-06-21T11:21:52.785Z,23.27
2018-06-21T11:23:55.818Z,23.67
2018-06-21T11:25:58.798Z,22.77
2018-06-21T11:28:01.794Z,21.53
2018-06-21T11:30:04.840Z,20.20
2018-06-21T11:32:07.856Z,18.70
2018-06-21T11:34:11.353Z,18.87
2018-06-21T11:36:14.636Z,15.23
2018-06-21T11:38:18.560Z,15.93
2018-06-21T11:40:22.886Z,16.73
2018-06-21T11:42:25.939Z,16.60
2018-06-21T11:44:29.126Z,17.93
2018-06-21T11:46:32.123Z,14.80
2018-06-21T11:48:35.519Z,15.53
2018-06-21T11:50:38.599Z,12.97
2018-06-21T11:52:41.764Z,14.53
2018-06-21T11:54:45.380Z,13.73
2018-06-21T11:56:48.930Z,13.20
2018-06-21T11:58:52.162Z,13.30
2018-06-21T12:00:55.679Z,14.47
2018-06-21T12:02:58.871Z,12.80
2018-06-21T12:05:02.418Z,11.53
2018-06-21T12:07:05.833Z,11.67
2018-06-21T12:09:09.349Z,14.43
2018-06-21T12:11:12.762Z,10.60
2018-06-21T12:13:16.348Z,11.87
2018-06-21T12:15:19.695Z,11.93
2018-06-21T12:17:23.513Z,12.50
2018-06-21T12:19:26.719Z,11.50
2018-06-21T12:21:29.814Z,11.53
2018-06-21T12:23:33.017Z,11.20
2018-06-21T12:25:36.540Z,11.20
2018-06-21T12:27:40.105Z,10.30
2018-06-21T12:29:43.189Z,10.53
2018-06-21T12:31:46.667Z,9.50
2018-06-21T12:33:49.471Z,11.13
2018-06-21T12:35:52.427Z,10.53
2018-06-21T12:37:55.888Z,12.10
2018-06-21T12:39:58.902Z,11.63
2018-06-21T12:42:02.304Z,19.60
2018-06-21T12:44:05.733Z,16.17
2018-06-21T12:46:08.617Z,18.07
2018-06-21T12:48:11.265Z,18.63
2018-06-21T12:50:13.744Z,14.17
2018-06-21T12:52:17.950Z,14.33
2018-06-21T12:54:21.352Z,16.97
2018-06-21T12:56:24.595Z,18.70
2018-06-21T12:58:29.136Z,12.50
2018-06-21T13:00:32.197Z,14.13
2018-06-21T13:02:34.865Z,17.10
2018-06-21T13:04:37.583Z,12.97
2018-06-21T13:06:40.735Z,12.73
2018-06-21T13:08:43.421Z,13.67
2018-06-21T13:10:46.443Z,18.67
2018-06-21T13:12:49.331Z,14.63
2018-06-21T13:14:52.105Z,15.00
2018-06-21T13:16:54.676Z,13.13
2018-06-21T13:18:57.321Z,17.23
2018-06-21T13:21:00.029Z,12.80
2018-06-21T13:23:02.712Z,14.03
2018-06-21T13:25:05.271Z,13.57
2018-06-21T13:27:07.881Z,13.17
2018-06-21T13:29:10.795Z,12.73
2018-06-21T13:31:15.018Z,12.17
2018-06-21T13:33:17.992Z,14.40
2018-06-21T13:35:20.692Z,15.63
2018-06-21T13:37:23.965Z,14.53
2018-06-21T13:39:27.051Z,13.27
2018-06-21T13:41:30.105Z,15.33
2018-06-21T13:43:33.008Z,17.53
2018-06-21T13:45:35.727Z,16.07
2018-06-21T13:47:38.751Z,16.70
2018-06-21T13:49:41.921Z,14.70
2018-06-21T13:51:44.977Z,16.80
2018-06-21T13:53:47.675Z,15.03
2018-06-21T13:55:50.711Z,17.40
2018-06-21T13:57:53.556Z,13.60
2018-06-21T13:59:56.933Z,15.60
2018-06-21T14:02:02.783Z,15.30
2018-06-21T14:23:21.092Z,15.77
2018-06-21T14:25:24.140Z,15.70
2018-06-21T14:27:27.692Z,17.00
2018-06-21T14:29:31.138Z,15.50
2018-06-21T14:31:34.053Z,14.37
2018-06-21T14:33:36.565Z,13.93
2018-06-21T14:35:40.125Z,18.27
2018-06-21T14:37:42.875Z,13.80
2018-06-21T14:39:46.956Z,15.27
2018-06-21T14:41:50.382Z,13.93
2018-06-21T14:43:54.146Z,16.37
2018-06-21T14:45:58.567Z,14.95
2018-06-21T14:48:01.439Z,14.70
2018-06-21T14:50:04.690Z,16.17
2018-06-21T14:52:07.350Z,17.70
2018-06-21T14:54:10.096Z,15.63
2018-06-21T14:56:12.846Z,16.17
2018-06-21T14:58:15.602Z,15.60
2018-06-21T15:00:18.318Z,14.90
2018-06-21T15:02:21.243Z,15.03
2018-06-21T15:04:23.909Z,13.73
2018-06-21T15:06:27.054Z,13.73
2018-06-21T15:08:30.152Z,13.63
2018-06-21T15:10:32.878Z,13.93
2018-06-21T15:12:35.967Z,14.13
2018-06-21T15:14:38.643Z,15.07
2018-06-21T15:16:42.094Z,14.37
2018-06-21T15:18:44.873Z,14.13
2018-06-21T15:20:47.798Z,16.03
2018-06-21T15:22:50.539Z,18.03
2018-06-21T15:24:53.271Z,14.60
2018-06-21T15:26:56.258Z,16.47
2018-06-21T15:28:59.036Z,14.67
2018-06-21T15:31:01.744Z,16.10
2018-06-21T15:33:04.373Z,15.80
2018-06-21T15:35:07.162Z,14.43
2018-06-21T15:37:09.747Z,15.90
2018-06-21T15:39:12.645Z,17.80
2018-06-21T15:41:15.604Z,18.30
2018-06-21T15:43:18.672Z,14.90
2018-06-21T15:45:21.333Z,15.17
2018-06-21T15:47:24.270Z,14.83
2018-06-21T15:49:26.912Z,16.80
2018-06-21T15:51:29.682Z,17.80
2018-06-21T15:53:32.771Z,17.37
2018-06-21T15:55:35.287Z,15.57
2018-06-21T15:57:37.860Z,13.57
2018-06-21T15:59:40.511Z,14.07
2018-06-21T16:01:44.145Z,15.33
2018-06-21T16:03:47.048Z,14.97
2018-06-21T16:05:49.720Z,17.93
2018-06-21T16:07:52.356Z,15.33
2018-06-21T16:09:55.237Z,17.40
2018-06-21T16:11:57.932Z,15.17
2018-06-21T16:14:00.626Z,18.13
2018-06-21T16:16:03.402Z,14.73
2018-06-21T16:18:06.182Z,15.87
2018-06-21T16:20:08.863Z,15.97
2018-06-21T16:22:11.606Z,14.37
2018-06-21T16:24:14.350Z,16.30
2018-06-21T16:26:17.152Z,16.33
2018-06-21T16:28:20.603Z,14.23
2018-06-21T16:30:23.559Z,15.93
2018-06-21T16:32:26.218Z,15.67
2018-06-21T16:34:29.007Z,16.77
2018-06-21T16:36:31.701Z,15.73
2018-06-21T16:38:34.294Z,17.97
2018-06-21T16:40:37.409Z,15.77
2018-06-21T16:42:40.354Z,16.67
2018-06-21T16:44:43.088Z,17.73
2018-06-21T16:46:46.097Z,17.20
2018-06-21T16:48:49.029Z,17.17
2018-06-21T16:50:51.871Z,16.67
2018-06-21T16:52:55.496Z,16.73
2018-06-21T16:54:58.346Z,18.57
2018-06-21T16:57:00.868Z,15.63
2018-06-21T16:59:05.738Z,18.93
2018-06-21T17:01:09.345Z,19.37
2018-06-21T17:03:12.387Z,17.87
2018-06-21T17:05:15.364Z,17.40
2018-06-21T17:07:18.485Z,17.80
2018-06-21T17:09:22.541Z,17.30
2018-06-21T17:11:28.128Z,20.47
2018-06-21T17:13:32.042Z,15.07
2018-06-21T17:15:35.015Z,15.85
2018-06-21T17:17:39.881Z,16.40
2018-06-21T17:19:42.693Z,15.90
2018-06-21T17:21:46.562Z,17.73
2018-06-21T17:23:49.474Z,15.90
2018-06-21T17:25:52.945Z,15.10
2018-06-21T17:27:58.410Z,15.20
2018-06-21T17:30:03.154Z,15.80
2018-06-21T17:32:07.074Z,17.93
2018-06-21T17:34:09.911Z,18.30
2018-06-21T17:36:12.894Z,17.03
2018-06-21T17:38:15.646Z,17.43
2018-06-21T17:40:18.307Z,16.13
2018-06-21T17:42:21.285Z,15.53
2018-06-21T17:44:23.966Z,15.67
2018-06-21T17:46:26.584Z,15.80
2018-06-21T17:48:29.251Z,14.13
2018-06-21T17:50:31.972Z,20.23
2018-06-21T17:52:35.559Z,16.63
2018-06-21T17:54:38.324Z,15.40
2018-06-21T17:56:41.253Z,15.77
2018-06-21T17:58:44.338Z,16.03
2018-06-21T18:00:47.188Z,16.17
2018-06-21T18:02:49.978Z,16.27
2018-06-21T18:04:52.948Z,15.50
2018-06-21T18:06:55.811Z,14.93
2018-06-21T18:08:58.618Z,16.03
2018-06-21T18:11:01.590Z,14.77
2018-06-21T18:13:04.332Z,19.00
2018-06-21T18:15:07.174Z,15.47
2018-06-21T18:17:09.959Z,15.53
2018-06-21T18:19:12.657Z,15.53
2018-06-21T18:21:18.780Z,15.70
2018-06-21T18:23:21.360Z,15.83
2018-06-21T18:25:24.040Z,16.00
2018-06-21T18:27:26.725Z,15.60
2018-06-21T18:29:29.307Z,14.70
2018-06-21T18:31:32.361Z,14.37
2018-06-21T18:33:35.854Z,15.43
2018-06-21T18:35:38.647Z,15.03
2018-06-21T18:37:42.228Z,15.57
2018-06-21T18:39:46.163Z,15.40
2018-06-21T18:41:49.006Z,15.67
2018-06-21T18:43:51.820Z,15.90
2018-06-21T18:45:54.776Z,16.87
2018-06-21T18:47:57.566Z,15.53
2018-06-21T18:50:00.434Z,16.20
2018-06-21T18:52:03.539Z,16.33
2018-06-21T18:54:06.333Z,17.37
2018-06-21T18:56:09.177Z,16.90
2018-06-21T18:58:12.004Z,17.43
2018-06-21T19:00:15.027Z,17.07
2018-06-21T19:02:17.773Z,20.07
2018-06-21T19:04:20.643Z,16.07
2018-06-21T19:06:23.419Z,18.57
2018-06-21T19:08:26.173Z,18.33
2018-06-21T19:10:28.990Z,19.33
2018-06-21T19:12:32.326Z,16.30
2018-06-21T19:14:35.219Z,19.40
2018-06-21T19:16:38.044Z,17.90
2018-06-21T19:18:41.872Z,16.93
2018-06-21T19:20:44.651Z,17.50
2018-06-21T19:22:48.578Z,17.17
2018-06-21T19:24:52.179Z,16.93
2018-06-21T19:26:54.692Z,16.83
2018-06-21T19:28:58.217Z,18.13
2018-06-21T19:31:01.142Z,16.60
2018-06-21T19:33:03.887Z,15.30
2018-06-21T19:35:06.680Z,16.13
2018-06-21T19:37:09.591Z,17.73
2018-06-21T19:39:12.464Z,15.57
2018-06-21T19:41:15.732Z,17.90
2018-06-21T19:43:18.502Z,16.10
2018-06-21T19:45:21.312Z,18.00
2018-06-21T19:47:24.176Z,18.13
2018-06-21T19:49:27.173Z,18.10
2018-06-21T19:51:30.045Z,17.07
2018-06-21T19:53:33.036Z,16.87
2018-06-21T19:55:35.997Z,15.73
2018-06-21T19:57:40.128Z,17.43
2018-06-21T19:59:43.133Z,17.53
2018-06-21T20:01:46.388Z,15.93
2018-06-21T20:03:49.553Z,15.90
2018-06-21T20:05:52.789Z,15.70
2018-06-21T20:07:55.767Z,14.93
2018-06-21T20:09:58.818Z,15.60
2018-06-21T20:12:01.619Z,15.03
2018-06-21T20:14:04.532Z,16.10
2018-06-21T20:16:07.819Z,16.27
2018-06-21T20:18:11.550Z,15.37
2018-06-21T20:20:14.461Z,16.03
2018-06-21T20:22:17.758Z,15.10
2018-06-21T20:24:21.112Z,15.77
2018-06-21T20:26:23.987Z,16.47
2018-06-21T20:28:27.248Z,14.90
2018-06-21T20:30:30.370Z,16.03
2018-06-21T20:32:33.214Z,13.47
2018-06-21T20:34:35.966Z,16.87
2018-06-21T20:36:38.957Z,14.25
2018-06-21T20:38:41.838Z,16.77
2018-06-21T20:40:44.704Z,17.07
2018-06-21T20:42:47.501Z,16.07
2018-06-21T20:44:50.438Z,17.47
2018-06-21T20:46:53.246Z,16.53
2018-06-21T20:48:56.244Z,16.17
2018-06-21T20:50:59.216Z,17.13
2018-06-21T20:53:02.387Z,17.33
2018-06-21T20:55:05.511Z,16.60
2018-06-21T20:57:08.647Z,19.27
2018-06-21T20:59:11.536Z,15.90
2018-06-21T21:01:15.036Z,16.60
2018-06-21T21:03:17.876Z,16.83
2018-06-21T21:05:20.858Z,15.50
2018-06-21T21:07:23.598Z,16.90
2018-06-21T21:09:26.345Z,15.83
2018-06-21T21:11:29.377Z,16.27
2018-06-21T21:13:32.453Z,17.73
2018-06-21T21:15:35.460Z,15.73
2018-06-21T21:17:39.037Z,16.97
2018-06-21T21:19:42.219Z,18.27
2018-06-21T21:21:45.239Z,16.10
2018-06-21T21:23:48.807Z,17.63
2018-06-21T21:25:51.887Z,16.67
2018-06-21T21:27:54.774Z,17.10
2018-06-21T21:29:57.750Z,17.85
2018-06-21T21:32:00.869Z,16.47
2018-06-21T21:34:03.648Z,17.43
2018-06-21T21:36:06.267Z,16.87
2018-06-21T21:38:09.078Z,18.67
2018-06-21T21:40:11.612Z,19.30
2018-06-21T21:42:14.424Z,17.17
2018-06-21T21:44:17.015Z,17.27
2018-06-21T21:46:19.823Z,17.33
2018-06-21T21:48:22.892Z,17.73
2018-06-21T21:50:26.380Z,16.70
2018-06-21T21:52:29.765Z,17.87
2018-06-21T21:54:33.399Z,16.40
2018-06-21T21:56:36.093Z,16.23
2018-06-21T21:58:39.548Z,17.07
2018-06-21T22:00:42.637Z,17.47
2018-06-21T22:02:46.141Z,15.83
2018-06-21T22:04:49.141Z,17.60
2018-06-21T22:06:52.983Z,14.47
2018-06-21T22:08:55.598Z,18.47
2018-06-21T22:10:59.850Z,16.03
2018-06-21T22:13:02.600Z,16.63
2018-06-21T22:15:05.888Z,15.90
2018-06-21T22:17:08.544Z,16.40
2018-06-21T22:19:11.496Z,17.73
2018-06-21T22:21:14.758Z,17.97
2018-06-21T22:23:17.664Z,17.23
2018-06-21T22:25:20.498Z,17.77
2018-06-21T22:27:23.797Z,16.43
2018-06-21T22:29:28.265Z,16.43
2018-06-21T22:31:31.303Z,17.80
2018-06-21T22:33:35.791Z,17.07
2018-06-21T22:35:38.468Z,17.33
2018-06-21T22:37:41.163Z,17.30
2018-06-21T22:39:43.907Z,17.87
2018-06-21T22:41:46.622Z,19.37
2018-06-21T22:43:50.045Z,19.47
2018-06-21T22:45:53.202Z,18.03
2018-06-21T22:47:56.484Z,18.07
2018-06-21T22:49:59.715Z,19.33
2018-06-21T22:52:02.555Z,20.33
2018-06-21T22:54:05.626Z,20.50
2018-06-21T22:56:08.256Z,18.70
2018-06-21T22:58:14.842Z,20.97
2018-06-21T23:00:18.250Z,239.37
2018-06-21T23:02:20.918Z,156.17
2018-06-21T23:04:24.075Z,106.03
2018-06-21T23:06:26.912Z,70.03
2018-06-21T23:08:29.499Z,66.13
2018-06-21T23:10:32.447Z,63.73
2018-06-21T23:12:35.165Z,62.50
2018-06-21T23:14:39.055Z,61.37
2018-06-21T23:16:41.956Z,58.10
2018-06-21T23:18:46.723Z,57.93
2018-06-21T23:20:49.414Z,58.30
2018-06-21T23:22:52.567Z,57.00
2018-06-21T23:24:55.089Z,56.13
2018-06-21T23:26:57.846Z,58.10
2018-06-21T23:29:00.472Z,54.70
2018-06-21T23:31:03.030Z,54.17
2018-06-21T23:33:05.944Z,53.43
2018-06-21T23:35:08.651Z,54.20
2018-06-21T23:37:11.322Z,51.57
2018-06-21T23:39:14.346Z,53.30
2018-06-21T23:41:17.013Z,54.03
2018-06-21T23:43:20.021Z,54.13
2018-06-21T23:45:22.598Z,49.93
2018-06-21T23:47:25.286Z,49.70
2018-06-21T23:49:28.148Z,49.63
2018-06-21T23:51:31.706Z,47.03
2018-06-21T23:53:34.397Z,47.43
2018-06-21T23:55:37.248Z,48.73
2018-06-21T23:57:40.046Z,48.70
2018-06-21T23:59:42.616Z,47.17
